createdAt,value
2022-12-24T00:02:50.557Z,0.00
2022-12-24T00:07:52.035Z,0.00
2022-12-24T00:12:53.378Z,0.00
2022-12-24T00:17:54.714Z,0.00
2022-12-24T00:22:56.059Z,0.00
2022-12-24T00:27:57.411Z,0.00
2022-12-24T00:32:58.764Z,0.00
2022-12-24T00:38:00.131Z,0.00
2022-12-24T00:43:01.444Z,0.00
2022-12-24T00:48:02.834Z,0.00
2022-12-24T00:53:04.183Z,0.00
2022-12-24T00:58:05.556Z,0.00
2022-12-24T01:03:06.957Z,0.00
2022-12-24T01:08:08.620Z,0.00
2022-12-24T01:13:09.950Z,0.00
2022-12-24T01:18:11.321Z,0.00
2022-12-24T01:23:12.757Z,0.00
2022-12-24T01:28:14.113Z,0.00
2022-12-24T01:33:15.443Z,0.00
2022-12-24T01:38:16.756Z,0.00
2022-12-24T01:43:23.295Z,0.28
2022-12-24T01:48:31.373Z,0.00
2022-12-24T01:53:35.027Z,0.00
2022-12-24T01:58:37.821Z,0.00
2022-12-24T02:03:39.775Z,0.00
2022-12-24T02:08:41.215Z,0.00
2022-12-24T02:13:47.872Z,0.00
2022-12-24T02:19:14.039Z,0.00
2022-12-24T02:24:51.733Z,0.00
2022-12-24T02:29:55.811Z,0.00
2022-12-24T02:35:14.385Z,0.70
2022-12-24T02:40:25.396Z,0.35
2022-12-24T02:45:31.000Z,0.65
2022-12-24T02:50:32.369Z,0.63
2022-12-24T02:55:44.623Z,2.10
2022-12-24T03:01:30.872Z,2.25
2022-12-24T03:06:47.523Z,2.40
2022-12-24T03:12:00.848Z,1.55
2022-12-24T03:17:03.544Z,1.10
2022-12-24T03:22:09.095Z,3.63
2022-12-24T03:27:13.143Z,1.58
2022-12-24T03:32:14.459Z,1.15
2022-12-24T03:37:15.766Z,1.23
2022-12-24T03:42:17.121Z,1.23
2022-12-24T03:47:18.442Z,1.00
2022-12-24T03:52:19.760Z,1.77
2022-12-24T03:57:21.137Z,1.20
2022-12-24T04:02:22.580Z,1.50
2022-12-24T04:07:24.030Z,1.08
2022-12-24T04:12:25.517Z,1.15
2022-12-24T04:17:26.866Z,1.48
2022-12-24T04:22:28.260Z,1.25
2022-12-24T04:27:31.110Z,1.38
2022-12-24T04:32:32.457Z,1.40
2022-12-24T04:37:34.170Z,1.00
2022-12-24T04:42:35.557Z,0.70
2022-12-24T04:47:36.934Z,1.60
2022-12-24T04:52:38.257Z,1.30
2022-12-24T04:57:39.587Z,0.60
2022-12-24T05:02:41.160Z,0.70
2022-12-24T05:07:42.569Z,1.05
2022-12-24T05:12:43.923Z,10.32
2022-12-24T05:17:45.248Z,1.20
2022-12-24T05:23:05.024Z,1.27
2022-12-24T05:28:06.344Z,0.90
2022-12-24T05:33:07.656Z,1.58
2022-12-24T05:38:09.027Z,2.95
2022-12-24T05:43:10.361Z,1.58
2022-12-24T05:48:11.762Z,1.23
2022-12-24T05:53:13.092Z,1.00
2022-12-24T05:58:14.594Z,0.80
2022-12-24T06:03:15.945Z,0.80
2022-12-24T06:08:17.272Z,0.75
2022-12-24T06:13:18.647Z,0.60
2022-12-24T06:18:19.975Z,1.40
2022-12-24T06:23:21.592Z,1.00
2022-12-24T06:28:22.977Z,2.08
2022-12-24T06:33:24.471Z,0.90
2022-12-24T06:38:25.981Z,1.55
2022-12-24T06:43:27.312Z,2.45
2022-12-24T06:48:28.776Z,1.15
2022-12-24T06:53:31.396Z,1.92
2022-12-24T06:58:34.105Z,1.38
2022-12-24T07:08:52.004Z,0.77
2022-12-24T07:13:53.458Z,6.90
2022-12-24T07:18:54.800Z,1.17
2022-12-24T07:23:56.128Z,0.90
2022-12-24T07:28:57.922Z,0.98
2022-12-24T07:33:59.400Z,1.40
2022-12-24T07:39:00.715Z,2.65
2022-12-24T07:44:02.036Z,1.00
2022-12-24T07:49:03.402Z,1.45
2022-12-24T07:54:05.104Z,1.60
2022-12-24T07:59:06.506Z,2.17
2022-12-24T08:04:07.940Z,2.45
2022-12-24T08:09:09.380Z,1.95
2022-12-24T08:14:10.731Z,1.98
2022-12-24T08:19:12.051Z,1.30
2022-12-24T08:24:13.406Z,1.63
2022-12-24T08:29:14.755Z,2.67
2022-12-24T08:34:16.083Z,2.25
2022-12-24T08:39:17.409Z,1.83
2022-12-24T08:44:18.816Z,1.40
2022-12-24T08:49:20.147Z,1.83
2022-12-24T08:54:22.476Z,2.22
2022-12-24T08:59:23.926Z,3.20
2022-12-24T09:04:25.273Z,2.25
2022-12-24T09:09:34.137Z,2.53
2022-12-24T09:14:39.030Z,2.17
2022-12-24T09:19:40.874Z,1.77
2022-12-24T09:24:42.219Z,3.45
2022-12-24T09:29:43.560Z,2.53
2022-12-24T09:34:44.908Z,1.98
2022-12-24T09:39:46.253Z,2.78
2022-12-24T09:44:58.950Z,2.30
2022-12-24T09:50:03.669Z,2.92
2022-12-24T09:55:33.478Z,2.47
2022-12-24T10:00:38.012Z,3.10
2022-12-24T10:06:01.143Z,2.55
2022-12-24T10:11:21.360Z,1.90
2022-12-24T10:16:34.286Z,2.75
2022-12-24T10:22:00.919Z,1.67
2022-12-24T10:27:26.717Z,2.40
2022-12-24T10:32:37.439Z,3.13
2022-12-24T10:37:38.858Z,2.33
2022-12-24T10:42:51.055Z,1.88
2022-12-24T10:47:57.109Z,2.78
2022-12-24T10:53:06.771Z,2.42
2022-12-24T10:58:15.601Z,2.40
2022-12-24T11:03:30.185Z,3.35
2022-12-24T11:08:32.274Z,3.05
2022-12-24T11:13:45.901Z,1.38
2022-12-24T11:18:52.022Z,1.30
2022-12-24T11:23:57.285Z,2.92
2022-12-24T11:29:20.632Z,1.75
2022-12-24T11:34:28.419Z,2.85
2022-12-24T11:39:38.401Z,2.45
2022-12-24T11:44:48.615Z,2.53
2022-12-24T11:49:49.957Z,3.03
2022-12-24T11:55:00.708Z,1.52
2022-12-24T12:00:02.043Z,3.03
2022-12-24T12:05:11.666Z,2.20
2022-12-24T12:10:20.611Z,2.72
2022-12-24T12:15:24.813Z,1.70
2022-12-24T12:20:40.965Z,1.85
2022-12-24T12:25:53.271Z,2.10
2022-12-24T12:31:09.068Z,1.67
2022-12-24T12:36:18.299Z,3.00
2022-12-24T12:41:45.809Z,2.78
2022-12-24T12:46:56.059Z,0.90
2022-12-24T12:52:20.490Z,2.53
2022-12-24T12:57:26.379Z,2.13
2022-12-24T13:02:30.901Z,1.90
2022-12-24T13:07:55.056Z,3.10
2022-12-24T13:13:02.446Z,2.45
2022-12-24T13:23:18.726Z,1.60
2022-12-24T13:28:20.391Z,2.50
2022-12-24T13:33:41.947Z,1.30
2022-12-24T13:38:53.095Z,1.63
2022-12-24T13:44:06.656Z,2.10
2022-12-24T13:49:18.954Z,1.95
2022-12-24T13:54:25.576Z,2.42
2022-12-24T13:59:38.879Z,1.20
2022-12-24T14:04:42.225Z,1.77
2022-12-24T14:09:51.113Z,2.60
2022-12-24T14:14:52.484Z,2.88
2022-12-24T14:20:07.066Z,1.33
2022-12-24T14:25:27.331Z,1.67
2022-12-24T14:30:30.461Z,1.48
2022-12-24T14:35:39.888Z,1.67
2022-12-24T14:41:04.022Z,5.07
2022-12-24T14:46:29.598Z,1.48
2022-12-24T14:52:08.781Z,2.10
2022-12-24T14:57:23.346Z,2.53
2022-12-24T15:02:41.971Z,2.58
2022-12-24T15:07:58.626Z,1.75
2022-12-24T15:13:07.275Z,2.53
2022-12-24T15:18:16.849Z,2.00
2022-12-24T15:23:20.655Z,3.28
2022-12-24T15:28:23.510Z,2.95
2022-12-24T15:33:24.834Z,4.13
2022-12-24T15:38:39.804Z,3.83
2022-12-24T15:43:41.649Z,2.85
2022-12-24T15:48:45.104Z,3.05
2022-12-24T15:53:48.282Z,4.13
2022-12-24T15:58:49.646Z,3.47
2022-12-24T16:03:51.017Z,3.50
2022-12-24T16:08:52.523Z,3.35
2022-12-24T16:14:10.845Z,3.95
2022-12-24T16:19:23.661Z,5.30
2022-12-24T16:24:28.531Z,4.60
2022-12-24T16:29:29.884Z,3.78
2022-12-24T16:34:32.560Z,4.88
2022-12-24T16:39:34.815Z,5.03
2022-12-24T16:44:36.890Z,5.25
2022-12-24T16:49:38.965Z,4.63
2022-12-24T16:54:40.308Z,4.28
2022-12-24T16:59:42.053Z,4.35
2022-12-24T17:04:44.083Z,5.55
2022-12-24T17:09:45.601Z,6.05
2022-12-24T17:14:47.182Z,5.85
2022-12-24T17:19:48.491Z,5.45
2022-12-24T17:24:50.332Z,5.43
2022-12-24T17:29:51.736Z,4.80
2022-12-24T17:34:53.377Z,4.82
2022-12-24T17:39:54.789Z,5.93
2022-12-24T17:44:56.132Z,5.65
2022-12-24T17:49:57.645Z,5.05
2022-12-24T17:54:59.039Z,7.10
2022-12-24T18:00:00.693Z,6.70
2022-12-24T18:05:02.035Z,5.05
2022-12-24T18:10:04.629Z,5.78
2022-12-24T18:15:06.666Z,6.63
2022-12-24T18:20:08.965Z,6.47
2022-12-24T18:25:10.495Z,7.22
2022-12-24T18:30:12.458Z,6.05
2022-12-24T18:35:14.449Z,6.85
2022-12-24T18:40:17.949Z,6.82
2022-12-24T18:45:19.391Z,6.60
2022-12-24T18:50:20.755Z,7.45
2022-12-24T18:55:22.107Z,9.23
2022-12-24T19:00:23.510Z,9.57
2022-12-24T19:05:24.893Z,9.82
2022-12-24T19:10:26.315Z,10.52
2022-12-24T19:15:33.811Z,9.40
2022-12-24T19:20:40.638Z,8.23
2022-12-24T19:25:42.075Z,6.60
2022-12-24T19:30:43.479Z,8.05
2022-12-24T19:35:44.801Z,8.25
2022-12-24T19:40:46.142Z,7.13
2022-12-24T19:45:47.603Z,6.80
2022-12-24T19:50:48.997Z,6.55
2022-12-24T19:55:50.362Z,4.78
2022-12-24T20:00:52.141Z,6.63
2022-12-24T20:05:54.528Z,5.75
2022-12-24T20:10:55.901Z,7.07
2022-12-24T20:15:57.242Z,8.20
2022-12-24T20:21:00.019Z,6.85
2022-12-24T20:26:03.593Z,6.10
2022-12-24T20:31:16.704Z,7.35
2022-12-24T20:36:20.630Z,7.03
2022-12-24T20:41:23.789Z,7.15
2022-12-24T20:46:25.462Z,7.05
2022-12-24T20:51:28.533Z,7.55
2022-12-24T20:56:31.042Z,7.13
2022-12-24T21:01:34.201Z,8.00
2022-12-24T21:06:36.297Z,6.72
2022-12-24T21:11:50.136Z,7.88
2022-12-24T21:16:53.950Z,7.25
2022-12-24T21:21:55.446Z,9.73
2022-12-24T21:26:56.860Z,9.13
2022-12-24T21:31:58.199Z,8.68
2022-12-24T21:36:59.570Z,7.75
2022-12-24T21:42:00.943Z,7.50
2022-12-24T21:47:03.082Z,7.47
2022-12-24T21:52:04.557Z,9.60
2022-12-24T21:57:26.529Z,8.05
2022-12-24T22:02:28.301Z,6.93
2022-12-24T22:07:48.494Z,7.88
2022-12-24T22:12:49.827Z,6.38
2022-12-24T22:17:51.148Z,6.50
2022-12-24T22:22:52.503Z,7.35
2022-12-24T22:27:53.907Z,8.48
2022-12-24T22:32:55.236Z,8.20
2022-12-24T22:38:00.153Z,8.73
2022-12-24T22:43:02.011Z,8.68
2022-12-24T22:48:03.444Z,7.57
2022-12-24T22:53:04.834Z,9.13
2022-12-24T22:58:06.205Z,6.18
2022-12-24T23:03:08.099Z,6.60
2022-12-24T23:08:10.683Z,6.55
2022-12-24T23:13:32.162Z,8.43
2022-12-24T23:18:33.842Z,6.70
2022-12-24T23:23:37.266Z,6.22
2022-12-24T23:28:39.412Z,5.40
2022-12-24T23:33:41.312Z,6.75
2022-12-24T23:38:42.736Z,7.25
2022-12-24T23:43:44.473Z,6.03
2022-12-24T23:48:46.586Z,6.15
2022-12-24T23:53:52.999Z,7.43
2022-12-24T23:58:55.192Z,5.80
